createdAt,value
2018-04-28T00:00:35.836Z,5.53
2018-04-28T00:03:04.719Z,3.90
2018-04-28T00:05:32.848Z,6.63
2018-04-28T00:08:00.968Z,5.03
2018-04-28T00:10:29.078Z,5.53
2018-04-28T00:12:57.957Z,5.43
2018-04-28T00:15:26.887Z,6.40
2018-04-28T00:17:56.547Z,6.77
2018-04-28T00:20:24.678Z,7.70
2018-04-28T00:22:56.363Z,6.33
2018-04-28T00:25:36.786Z,7.53
2018-04-28T00:28:05.823Z,5.40
2018-04-28T00:30:35.527Z,4.70
2018-04-28T00:33:19.980Z,5.50
2018-04-28T00:36:06.830Z,5.80
2018-04-28T00:38:58.463Z,5.00
2018-04-28T00:41:31.737Z,11.00
2018-04-28T00:44:15.547Z,6.77
2018-04-28T00:46:46.071Z,3.90
2018-04-28T00:49:15.631Z,7.93
2018-04-28T00:51:52.405Z,3.60
2018-04-28T00:54:26.218Z,6.57
2018-04-28T00:56:57.211Z,4.10
2018-04-28T00:59:28.220Z,8.03
2018-04-28T01:02:00.030Z,7.77
2018-04-28T01:04:32.186Z,6.83
2018-04-28T01:07:00.284Z,5.93
2018-04-28T01:09:29.164Z,4.13
2018-04-28T01:11:57.269Z,5.43
2018-04-28T01:14:37.283Z,8.17
2018-04-28T01:17:05.399Z,5.80
2018-04-28T01:19:37.115Z,8.93
2018-04-28T01:22:05.261Z,3.90
2018-04-28T01:24:37.303Z,4.80
2018-04-28T01:30:12.006Z,8.90
2018-04-28T01:33:01.675Z,3.93
2018-04-28T01:35:33.948Z,5.40
2018-04-28T01:38:03.635Z,4.77
2018-04-28T01:40:31.754Z,4.80
2018-04-28T01:43:10.337Z,6.03
2018-04-28T01:45:56.239Z,5.47
2018-04-28T01:48:25.140Z,4.27
2018-04-28T01:50:57.999Z,5.00
2018-04-28T01:53:26.832Z,4.40
2018-04-28T01:56:05.782Z,4.40
2018-04-28T01:58:38.892Z,3.83
2018-04-28T02:01:22.761Z,8.53
2018-04-28T02:03:54.574Z,6.03
2018-04-28T02:06:47.845Z,9.80
2018-04-28T02:09:18.298Z,3.73
2018-04-28T02:12:01.307Z,4.83
2018-04-28T02:14:41.146Z,11.03
2018-04-28T02:17:11.926Z,6.27
2018-04-28T02:19:45.851Z,5.57
2018-04-28T02:22:14.871Z,6.63
2018-04-28T02:25:00.372Z,8.20
2018-04-28T02:27:59.882Z,3.43
2018-04-28T02:30:28.722Z,4.90
2018-04-28T02:32:58.293Z,8.37
2018-04-28T02:35:36.287Z,4.03
2018-04-28T02:38:08.860Z,8.20
2018-04-28T02:40:43.393Z,8.13
2018-04-28T02:43:12.275Z,3.73
2018-04-28T02:45:41.876Z,8.20
2018-04-28T02:48:11.547Z,3.47
2018-04-28T02:51:03.351Z,3.43
2018-04-28T02:53:31.475Z,7.13
2018-04-28T02:59:27.760Z,3.87
2018-04-28T03:02:05.443Z,4.60
2018-04-28T03:04:34.301Z,2.80
2018-04-28T03:07:18.149Z,3.30
2018-04-28T03:09:46.265Z,5.93
2018-04-28T03:12:15.227Z,4.57
2018-04-28T03:14:44.115Z,3.93
2018-04-28T03:17:27.088Z,2.50
2018-04-28T03:19:56.191Z,5.67
2018-04-28T03:22:25.543Z,3.03
2018-04-28T03:24:55.122Z,4.17
2018-04-28T03:30:36.933Z,3.17
2018-04-28T03:33:05.815Z,6.40
2018-04-28T03:35:55.327Z,6.33
2018-04-28T03:38:24.133Z,4.73
2018-04-28T03:40:53.084Z,6.17
2018-04-28T03:43:29.428Z,2.80
2018-04-28T03:46:09.127Z,3.50
2018-04-28T03:51:35.503Z,4.77
2018-04-28T03:54:05.141Z,6.80
2018-04-28T03:56:40.052Z,4.13
2018-04-28T03:59:19.989Z,4.13
2018-04-28T04:02:04.266Z,4.73
2018-04-28T04:04:38.196Z,6.60
2018-04-28T04:07:20.167Z,6.03
2018-04-28T04:10:07.742Z,3.27
2018-04-28T04:12:41.696Z,6.90
2018-04-28T04:15:37.340Z,6.30
2018-04-28T04:18:10.299Z,3.53
2018-04-28T04:20:52.679Z,3.80
2018-04-28T04:23:22.343Z,4.33
2018-04-28T04:26:01.587Z,6.50
2018-04-28T04:28:30.492Z,4.20
2018-04-28T04:31:04.261Z,9.17
2018-04-28T04:33:59.301Z,5.17
2018-04-28T04:39:43.182Z,5.57
2018-04-28T04:42:33.795Z,5.30
2018-04-28T04:45:11.812Z,4.93
2018-04-28T04:47:58.308Z,3.47
2018-04-28T04:50:35.439Z,6.97
2018-04-28T04:56:53.456Z,7.37
2018-04-28T04:59:33.737Z,5.20
2018-04-28T05:02:24.516Z,6.93
2018-04-28T05:05:10.625Z,6.37
2018-04-28T05:07:54.329Z,6.03
2018-04-28T05:10:38.997Z,9.97
2018-04-28T05:13:12.942Z,8.43
2018-04-28T05:15:44.751Z,4.07
2018-04-28T05:18:25.579Z,6.83
2018-04-28T05:21:03.120Z,8.70
2018-04-28T05:23:45.916Z,5.40
2018-04-28T05:26:21.732Z,10.90
2018-04-28T05:29:04.411Z,4.20
2018-04-28T05:31:56.298Z,9.63
2018-04-28T05:37:49.347Z,8.03
2018-04-28T05:40:23.919Z,6.33
2018-04-28T05:43:04.515Z,6.27
2018-04-28T05:45:40.916Z,7.47
2018-04-28T05:48:13.749Z,5.27
2018-04-28T05:50:48.619Z,8.23
2018-04-28T05:53:29.395Z,6.03
2018-04-28T05:56:20.170Z,7.97
2018-04-28T05:58:58.827Z,10.73
2018-04-28T06:01:48.588Z,6.47
2018-04-28T06:04:29.134Z,5.30
2018-04-28T06:10:16.489Z,6.67
2018-04-28T06:12:47.077Z,5.07
2018-04-28T06:15:21.967Z,5.50
2018-04-28T06:18:06.476Z,5.80
2018-04-28T06:20:40.431Z,7.93
2018-04-28T06:23:08.541Z,13.87
2018-04-28T06:25:37.463Z,8.20
2018-04-28T06:28:05.565Z,5.17
2018-04-28T06:30:34.450Z,5.30
2018-04-28T06:33:02.572Z,5.83
2018-04-28T06:35:30.696Z,5.10
2018-04-28T06:37:59.180Z,8.90
2018-04-28T06:40:28.727Z,7.63
2018-04-28T06:42:56.844Z,9.60
2018-04-28T06:45:29.702Z,6.03
2018-04-28T06:47:57.820Z,7.67
2018-04-28T06:50:26.731Z,5.73
2018-04-28T06:52:56.544Z,6.80
2018-04-28T06:55:24.782Z,8.83
2018-04-28T06:57:53.688Z,6.77
2018-04-28T07:00:21.875Z,7.53
2018-04-28T07:02:49.997Z,5.83
2018-04-28T07:05:18.165Z,11.03
2018-04-28T07:07:46.303Z,6.03
2018-04-28T07:10:14.461Z,9.33
2018-04-28T07:12:43.328Z,9.10
2018-04-28T07:15:11.436Z,7.87
2018-04-28T07:17:40.342Z,7.37
2018-04-28T07:20:09.210Z,5.60
2018-04-28T07:22:37.303Z,9.20
2018-04-28T07:25:05.458Z,4.77
2018-04-28T07:27:33.668Z,5.27
2018-04-28T07:30:02.595Z,6.27
2018-04-28T07:32:30.707Z,8.17
2018-04-28T07:34:58.844Z,8.30
2018-04-28T07:37:26.963Z,6.00
2018-04-28T07:39:55.923Z,6.27
2018-04-28T07:42:24.049Z,12.63
2018-04-28T07:44:52.144Z,10.30
2018-04-28T07:47:20.298Z,10.37
2018-04-28T07:49:48.418Z,9.40
2018-04-28T07:52:16.518Z,6.57
2018-04-28T07:54:44.700Z,6.93
2018-04-28T07:57:12.793Z,5.37
2018-04-28T07:59:40.898Z,6.13
2018-04-28T08:02:09.787Z,7.87
2018-04-28T08:04:39.207Z,4.90
2018-04-28T08:07:07.691Z,6.13
2018-04-28T08:09:35.970Z,11.33
2018-04-28T08:12:04.120Z,9.40
2018-04-28T08:14:32.296Z,9.90
2018-04-28T08:17:00.395Z,5.13
2018-04-28T08:19:29.812Z,7.13
2018-04-28T08:21:59.096Z,7.63
2018-04-28T08:24:27.234Z,5.50
2018-04-28T08:26:55.354Z,6.27
2018-04-28T08:29:24.353Z,5.03
2018-04-28T08:31:53.325Z,5.40
2018-04-28T08:34:21.491Z,8.57
2018-04-28T08:36:50.216Z,10.30
2018-04-28T08:39:18.311Z,5.47
2018-04-28T08:41:46.462Z,8.07
2018-04-28T08:44:14.574Z,5.00
2018-04-28T08:46:42.725Z,4.80
2018-04-28T08:49:11.628Z,6.80
2018-04-28T08:51:41.344Z,6.67
2018-04-28T08:54:09.511Z,5.07
2018-04-28T08:56:39.226Z,6.47
2018-04-28T08:59:07.314Z,7.77
2018-04-28T09:01:46.240Z,7.17
2018-04-28T09:04:14.365Z,3.70
2018-04-28T09:06:45.198Z,6.20
2018-04-28T09:09:13.387Z,5.10
2018-04-28T09:11:42.255Z,5.67
2018-04-28T09:14:10.360Z,6.47
2018-04-28T09:16:38.836Z,3.40
2018-04-28T09:19:08.166Z,6.50
2018-04-28T09:21:36.269Z,5.07
2018-04-28T09:24:05.140Z,6.77
2018-04-28T09:26:33.266Z,7.00
2018-04-28T09:29:01.449Z,5.80
2018-04-28T09:31:29.588Z,5.70
2018-04-28T09:33:58.537Z,8.17
2018-04-28T09:36:26.625Z,7.20
2018-04-28T09:38:54.735Z,6.43
2018-04-28T09:41:23.615Z,5.50
2018-04-28T09:43:51.717Z,3.80
2018-04-28T09:46:19.870Z,7.50
2018-04-28T09:48:48.025Z,3.27
2018-04-28T09:51:16.200Z,6.33
2018-04-28T09:53:44.334Z,6.10
2018-04-28T09:56:12.616Z,6.50
2018-04-28T09:58:41.579Z,5.27
2018-04-28T10:01:09.757Z,3.33
2018-04-28T10:03:37.931Z,7.13
2018-04-28T10:06:06.089Z,2.33
2018-04-28T10:08:34.291Z,5.47
2018-04-28T10:11:02.416Z,4.40
2018-04-28T10:13:30.545Z,4.13
2018-04-28T10:15:58.665Z,3.53
2018-04-28T10:18:26.777Z,3.53
2018-04-28T10:20:55.016Z,5.60
2018-04-28T10:23:23.615Z,6.40
2018-04-28T10:25:51.725Z,5.83
2018-04-28T10:28:19.836Z,5.77
2018-04-28T10:30:48.002Z,3.43
2018-04-28T10:33:16.095Z,4.77
2018-04-28T10:35:44.954Z,8.33
2018-04-28T10:38:13.092Z,7.30
2018-04-28T10:40:41.226Z,4.00
2018-04-28T10:43:09.340Z,5.77
2018-04-28T10:45:37.519Z,5.00
2018-04-28T10:48:06.403Z,4.23
2018-04-28T10:50:35.298Z,5.63
2018-04-28T10:53:04.370Z,7.20
2018-04-28T10:55:32.458Z,7.60
2018-04-28T10:58:00.550Z,3.93
2018-04-28T11:00:28.695Z,5.47
2018-04-28T11:02:56.800Z,7.23
2018-04-28T11:05:24.924Z,5.03
2018-04-28T11:07:53.026Z,6.77
2018-04-28T11:10:21.747Z,6.67
2018-04-28T11:12:49.843Z,6.37
2018-04-28T11:15:17.963Z,6.37
2018-04-28T11:17:46.144Z,7.17
2018-04-28T11:20:15.383Z,4.70
2018-04-28T11:22:43.502Z,4.90
2018-04-28T11:25:11.599Z,5.83
2018-04-28T11:27:39.703Z,4.30
2018-04-28T11:30:08.581Z,6.07
2018-04-28T11:32:36.795Z,4.37
2018-04-28T11:35:05.954Z,6.23
2018-04-28T11:37:34.855Z,5.53
2018-04-28T11:40:03.009Z,8.13
2018-04-28T11:42:31.107Z,6.13
2018-04-28T11:45:06.797Z,6.83
2018-04-28T11:47:34.904Z,7.03
2018-04-28T11:50:03.024Z,6.00
2018-04-28T11:52:31.132Z,5.47
2018-04-28T11:54:59.252Z,4.13
2018-04-28T11:57:27.356Z,4.10
2018-04-28T11:59:56.256Z,5.23
2018-04-28T12:02:24.410Z,6.87
2018-04-28T12:04:52.524Z,5.57
2018-04-28T12:07:20.648Z,5.00
2018-04-28T12:09:48.852Z,3.77
2018-04-28T12:12:16.950Z,7.27
2018-04-28T12:14:45.081Z,9.57
2018-04-28T12:17:13.254Z,5.47
2018-04-28T12:19:42.188Z,6.40
2018-04-28T12:22:11.066Z,3.13
2018-04-28T12:24:39.220Z,4.90
2018-04-28T12:27:07.363Z,7.27
2018-04-28T12:29:35.653Z,7.27
2018-04-28T12:32:03.838Z,3.67
2018-04-28T12:34:33.208Z,4.47
2018-04-28T12:37:01.342Z,3.40
2018-04-28T12:39:30.255Z,4.43
2018-04-28T12:41:58.384Z,5.70
2018-04-28T12:44:26.500Z,3.27
2018-04-28T12:46:54.621Z,5.10
2018-04-28T12:49:22.731Z,5.67
2018-04-28T12:51:51.127Z,5.30
2018-04-28T12:54:19.259Z,2.87
2018-04-28T12:56:47.718Z,3.33
2018-04-28T12:59:16.392Z,6.40
2018-04-28T13:01:44.522Z,4.77
2018-04-28T13:04:12.828Z,3.13
2018-04-28T13:06:40.994Z,3.97
2018-04-28T13:09:10.339Z,3.00
2018-04-28T13:11:38.455Z,2.33
2018-04-28T13:14:06.565Z,2.00
2018-04-28T13:16:36.039Z,3.37
2018-04-28T13:19:05.748Z,3.03
2018-04-28T13:21:34.828Z,3.30
2018-04-28T13:24:03.933Z,2.90
2018-04-28T13:26:34.170Z,4.00
2018-04-28T13:29:02.299Z,3.00
2018-04-28T13:31:31.512Z,4.30
2018-04-28T13:33:59.737Z,3.37
2018-04-28T13:36:28.000Z,4.47
2018-04-28T13:38:56.891Z,1.90
2018-04-28T13:41:25.763Z,2.60
2018-04-28T13:43:54.650Z,3.03
2018-04-28T13:46:22.785Z,2.83
2018-04-28T13:48:50.920Z,3.40
2018-04-28T13:51:19.151Z,3.43
2018-04-28T13:53:48.044Z,3.67
2018-04-28T13:56:16.485Z,2.93
2018-04-28T13:58:44.648Z,4.73
2018-04-28T14:01:12.772Z,3.93
2018-04-28T14:03:40.884Z,5.70
2018-04-28T14:06:08.987Z,5.17
2018-04-28T14:08:37.858Z,5.67
2018-04-28T14:11:05.967Z,4.30
2018-04-28T14:13:34.888Z,3.67
2018-04-28T14:16:02.992Z,5.90
2018-04-28T14:18:31.287Z,8.43
2018-04-28T14:20:59.510Z,5.87
2018-04-28T14:23:27.647Z,4.00
2018-04-28T14:25:55.755Z,5.57
2018-04-28T14:28:24.648Z,5.47
2018-04-28T14:30:53.555Z,5.33
2018-04-28T14:33:21.679Z,3.43
2018-04-28T14:35:49.810Z,3.97
2018-04-28T14:38:18.668Z,4.33
2018-04-28T14:40:46.805Z,4.07
2018-04-28T14:43:14.909Z,3.33
2018-04-28T14:45:43.048Z,3.70
2018-04-28T14:48:11.152Z,4.27
2018-04-28T14:50:39.283Z,4.30
2018-04-28T14:53:08.145Z,4.67
2018-04-28T14:55:36.262Z,3.93
2018-04-28T14:58:04.387Z,3.23
2018-04-28T15:00:32.576Z,4.00
2018-04-28T15:03:00.703Z,4.20
2018-04-28T15:05:28.819Z,3.20
2018-04-28T15:07:56.938Z,3.57
2018-04-28T15:10:25.813Z,3.93
2018-04-28T15:12:54.221Z,3.53
2018-04-28T15:15:22.363Z,4.73
2018-04-28T15:17:50.544Z,3.40
2018-04-28T15:20:18.663Z,3.00
2018-04-28T15:22:46.911Z,2.97
2018-04-28T15:25:15.089Z,3.97
2018-04-28T15:27:43.331Z,2.63
2018-04-28T15:30:12.370Z,3.03
2018-04-28T15:32:40.551Z,3.60
2018-04-28T15:35:08.755Z,3.00
2018-04-28T15:37:36.859Z,2.57
2018-04-28T15:40:04.976Z,5.30
2018-04-28T15:42:33.306Z,3.37
2018-04-28T15:45:01.416Z,3.10
2018-04-28T15:47:29.583Z,3.07
2018-04-28T15:49:57.711Z,2.93
2018-04-28T15:52:26.585Z,3.43
2018-04-28T15:54:54.692Z,6.03
2018-04-28T15:57:22.817Z,4.87
2018-04-28T15:59:51.139Z,3.23
2018-04-28T16:02:20.018Z,2.10
2018-04-28T16:04:48.243Z,2.13
2018-04-28T16:07:16.349Z,4.13
2018-04-28T16:09:45.243Z,2.80
2018-04-28T16:12:13.364Z,3.83
2018-04-28T16:14:41.552Z,2.97
2018-04-28T16:17:09.572Z,4.43
2018-04-28T16:19:37.751Z,5.07
2018-04-28T16:22:05.835Z,3.73
2018-04-28T16:24:34.683Z,4.20
2018-04-28T16:27:02.789Z,2.07
2018-04-28T16:29:30.929Z,4.23
2018-04-28T16:31:59.837Z,3.03
2018-04-28T16:34:27.997Z,6.07
2018-04-28T16:36:56.176Z,5.27
2018-04-28T16:39:24.877Z,13.80
2018-04-28T16:41:53.043Z,14.43
2018-04-28T16:44:21.195Z,16.50
2018-04-28T16:46:50.084Z,19.90
2018-04-28T16:49:18.197Z,17.13
2018-04-28T16:51:46.321Z,20.40
2018-04-28T16:54:14.439Z,19.33
2018-04-28T16:56:42.551Z,20.77
2018-04-28T16:59:10.774Z,22.10
2018-04-28T17:01:38.871Z,20.10
2018-04-28T17:04:07.801Z,20.07
2018-04-28T17:06:35.994Z,16.63
2018-04-28T17:09:04.029Z,17.97
2018-04-28T17:11:32.160Z,17.27
2018-04-28T17:14:00.299Z,10.03
2018-04-28T17:16:28.443Z,13.83
2018-04-28T17:18:57.322Z,15.80
2018-04-28T17:21:25.431Z,12.50
2018-04-28T17:23:53.555Z,13.63
2018-04-28T17:26:21.667Z,11.23
2018-04-28T17:28:50.539Z,11.27
2018-04-28T17:31:18.645Z,12.83
2018-04-28T17:33:46.763Z,9.53
2018-04-28T17:36:14.879Z,9.87
2018-04-28T17:38:42.972Z,9.77
2018-04-28T17:41:11.843Z,9.53
2018-04-28T17:43:39.951Z,9.50
2018-04-28T17:46:08.075Z,9.63
2018-04-28T17:48:36.190Z,10.13
2018-04-28T17:51:05.056Z,8.47
2018-04-28T17:53:33.193Z,7.73
2018-04-28T17:56:01.268Z,8.00
2018-04-28T17:58:29.380Z,5.87
2018-04-28T18:00:57.496Z,7.90
2018-04-28T18:03:25.647Z,7.50
2018-04-28T18:05:53.817Z,6.07
2018-04-28T18:08:22.755Z,5.20
2018-04-28T18:10:50.856Z,8.33
2018-04-28T18:13:18.977Z,5.60
2018-04-28T18:15:47.079Z,6.60
2018-04-28T18:18:15.968Z,4.20
2018-04-28T18:20:44.833Z,4.70
2018-04-28T18:23:13.059Z,3.87
2018-04-28T18:25:41.926Z,5.47
2018-04-28T18:28:10.028Z,6.50
2018-04-28T18:30:38.151Z,5.60
2018-04-28T18:33:06.259Z,3.90
2018-04-28T18:35:35.163Z,4.47
2018-04-28T18:38:04.024Z,4.33
2018-04-28T18:40:32.232Z,4.50
2018-04-28T18:43:00.343Z,3.90
2018-04-28T18:45:28.427Z,3.30
2018-04-28T18:47:56.551Z,3.53
2018-04-28T18:50:24.699Z,4.60
2018-04-28T18:52:52.832Z,3.80
2018-04-28T18:55:20.964Z,4.70
2018-04-28T18:57:49.066Z,4.63
2018-04-28T19:00:17.921Z,3.03
2018-04-28T19:02:46.073Z,3.73
2018-04-28T19:05:14.160Z,3.43
2018-04-28T19:07:42.344Z,3.97
2018-04-28T19:10:10.458Z,3.57
2018-04-28T19:12:38.578Z,4.90
2018-04-28T19:15:06.661Z,3.20
2018-04-28T19:17:34.787Z,2.80
2018-04-28T19:20:02.887Z,3.23
2018-04-28T19:22:31.033Z,3.10
2018-04-28T19:24:59.121Z,3.47
2018-04-28T19:27:28.021Z,2.70
2018-04-28T19:29:56.127Z,3.10
2018-04-28T19:32:24.265Z,4.00
2018-04-28T19:34:52.392Z,3.90
2018-04-28T19:37:20.500Z,3.07
2018-04-28T19:39:48.619Z,2.90
2018-04-28T19:42:17.492Z,3.43
2018-04-28T19:44:45.604Z,2.73
2018-04-28T19:47:13.702Z,4.57
2018-04-28T19:49:41.829Z,2.80
2018-04-28T19:52:09.939Z,3.90
2018-04-28T19:54:38.048Z,4.00
2018-04-28T19:57:06.165Z,4.33
2018-04-28T19:59:35.046Z,4.47
2018-04-28T20:02:03.964Z,4.37
2018-04-28T20:04:32.871Z,5.57
2018-04-28T20:07:01.026Z,4.57
2018-04-28T20:09:29.141Z,4.80
2018-04-28T20:11:57.289Z,5.30
2018-04-28T20:14:26.178Z,3.63
2018-04-28T20:16:54.288Z,5.73
2018-04-28T20:19:22.417Z,5.00
2018-04-28T20:21:50.512Z,3.70
2018-04-28T20:24:45.403Z,3.87
2018-04-28T20:27:14.308Z,5.33
2018-04-28T20:29:42.452Z,4.07
2018-04-28T20:32:10.591Z,4.37
2018-04-28T20:34:38.728Z,4.50
2018-04-28T20:37:06.927Z,3.77
2018-04-28T20:39:35.064Z,5.57
2018-04-28T20:42:03.172Z,3.13
2018-04-28T20:44:32.071Z,5.03
2018-04-28T20:47:00.949Z,3.87
2018-04-28T20:49:29.848Z,3.70
2018-04-28T20:51:58.749Z,3.73
2018-04-28T20:54:27.603Z,4.67
2018-04-28T20:56:55.717Z,5.97
2018-04-28T20:59:24.596Z,4.13
2018-04-28T21:01:52.773Z,4.23
2018-04-28T21:04:21.701Z,4.87
2018-04-28T21:06:49.803Z,3.87
2018-04-28T21:09:18.768Z,4.20
2018-04-28T21:11:46.865Z,4.60
2018-04-28T21:14:15.089Z,5.77
2018-04-28T21:16:43.305Z,4.87
2018-04-28T21:19:11.412Z,4.63
2018-04-28T21:21:39.542Z,3.90
2018-04-28T21:24:08.459Z,4.83
2018-04-28T21:26:36.572Z,4.50
2018-04-28T21:29:04.768Z,4.43
2018-04-28T21:31:32.888Z,4.37
2018-04-28T21:34:01.008Z,5.60
2018-04-28T21:36:29.143Z,4.87
2018-04-28T21:38:57.272Z,4.40
2018-04-28T21:41:25.388Z,5.73
2018-04-28T21:43:53.529Z,4.70
2018-04-28T21:46:21.740Z,5.40
2018-04-28T21:48:49.779Z,5.60
2018-04-28T21:51:17.940Z,4.90
2018-04-28T21:53:46.067Z,5.40
2018-04-28T21:56:14.164Z,4.77
2018-04-28T21:58:42.276Z,6.57
2018-04-28T22:01:10.390Z,4.37
2018-04-28T22:03:38.539Z,4.83
2018-04-28T22:06:06.663Z,9.40
2018-04-28T22:08:34.796Z,4.93
2018-04-28T22:11:02.930Z,4.80
2018-04-28T22:13:31.068Z,5.03
2018-04-28T22:15:59.948Z,5.57
2018-04-28T22:18:28.067Z,11.03
2018-04-28T22:20:56.179Z,4.87
2018-04-28T22:23:24.362Z,5.33
2018-04-28T22:25:52.397Z,5.07
2018-04-28T22:28:20.495Z,5.70
2018-04-28T22:30:48.623Z,7.93
2018-04-28T22:33:16.756Z,10.83
2018-04-28T22:35:44.869Z,5.30
2018-04-28T22:38:12.971Z,7.73
2018-04-28T22:40:41.844Z,6.93
2018-04-28T22:43:10.724Z,5.03
2018-04-28T22:45:38.849Z,6.27
2018-04-28T22:48:06.944Z,6.10
2018-04-28T22:50:35.064Z,9.37
2018-04-28T22:53:03.209Z,7.30
2018-04-28T22:55:31.347Z,5.87
2018-04-28T22:58:00.290Z,6.80
2018-04-28T23:00:28.431Z,5.70
2018-04-28T23:02:57.292Z,7.63
2018-04-28T23:05:26.239Z,6.37
2018-04-28T23:07:54.331Z,6.90
2018-04-28T23:10:22.431Z,6.87
2018-04-28T23:12:50.545Z,8.17
2018-04-28T23:15:18.642Z,6.00
2018-04-28T23:17:46.725Z,7.67
2018-04-28T23:20:14.832Z,6.47
2018-04-28T23:22:42.931Z,6.77
2018-04-28T23:25:11.835Z,8.73
2018-04-28T23:27:40.699Z,6.23
2018-04-28T23:30:08.848Z,7.33
2018-04-28T23:32:37.056Z,6.37
2018-04-28T23:35:05.163Z,7.13
2018-04-28T23:37:33.284Z,7.23
2018-04-28T23:40:01.416Z,7.17
2018-04-28T23:42:30.283Z,7.20
2018-04-28T23:44:58.412Z,8.13
2018-04-28T23:47:26.539Z,7.50
2018-04-28T23:49:54.658Z,8.23
2018-04-28T23:52:22.780Z,7.37
2018-04-28T23:54:50.892Z,9.30
2018-04-28T23:57:19.087Z,7.33
2018-04-28T23:59:47.189Z,7.03
